Time,TemperatureF,DewpointF,PressureIn,WindDirection,WindDirectionDegrees,WindSpeedMPH,WindSpeedGustMPH,Humidity,HourlyPrecipIn,Conditions,Clouds,dailyrainin,SolarRadiationWatts/m^2,SoftwareType,DateUTC
2013-05-05 00:02:00,29.0,19.0,-100.00,WNW,296,4.0,9.0,66,0.00,,,0.00,3.000000,,2013-05-05 08:02:00,
2013-05-05 00:11:00,29.0,19.0,-100.00,WNW,296,4.0,9.0,66,0.00,,,0.00,3.000000,,2013-05-05 08:11:00,
2013-05-05 00:21:00,29.0,19.0,-100.00,WNW,296,4.0,9.0,66,0.00,,,0.00,3.000000,,2013-05-05 08:21:00,
2013-05-05 00:53:00,27.0,19.0,-100.00,NW,304,2.0,5.0,71,0.00,,,0.00,0.000000,,2013-05-05 08:53:00,
2013-05-05 01:01:00,27.0,19.0,-100.00,NW,304,2.0,5.0,71,0.00,,,0.00,0.000000,,2013-05-05 09:01:00,
2013-05-05 01:11:00,27.0,19.0,-100.00,NW,304,2.0,5.0,71,0.00,,,0.00,0.000000,,2013-05-05 09:11:00,
2013-05-05 01:21:00,27.0,19.0,-100.00,NW,304,2.0,5.0,71,0.00,,,0.00,0.000000,,2013-05-05 09:21:00,
2013-05-05 01:52:00,26.0,20.0,-100.00,South,186,1.0,4.0,77,0.00,,,0.00,0.000000,,2013-05-05 09:52:00,
2013-05-05 02:02:00,26.0,20.0,-100.00,South,186,1.0,4.0,77,0.00,,,0.00,0.000000,,2013-05-05 10:02:00,
2013-05-05 02:12:00,26.0,20.0,-100.00,South,186,1.0,4.0,77,0.00,,,0.00,0.000000,,2013-05-05 10:12:00,
2013-05-05 02:22:00,26.0,20.0,-100.00,South,186,1.0,4.0,77,0.00,,,0.00,0.000000,,2013-05-05 10:22:00,
2013-05-05 02:53:00,26.0,19.0,-100.00,ESE,121,3.0,4.0,76,0.00,,,0.00,0.000000,,2013-05-05 10:53:00,
2013-05-05 03:01:00,26.0,19.0,-100.00,ESE,121,3.0,4.0,76,0.00,,,0.00,0.000000,,2013-05-05 11:01:00,
2013-05-05 03:11:00,26.0,19.0,-100.00,ESE,121,3.0,4.0,76,0.00,,,0.00,0.000000,,2013-05-05 11:11:00,
2013-05-05 03:21:00,26.0,19.0,-100.00,ESE,121,3.0,4.0,76,0.00,,,0.00,0.000000,,2013-05-05 11:21:00,
2013-05-05 03:52:00,26.0,19.0,-100.00,ESE,114,3.0,5.0,76,0.00,,,0.00,0.000000,,2013-05-05 11:52:00,
2013-05-05 04:01:00,26.0,19.0,-100.00,ESE,114,3.0,5.0,76,0.00,,,0.00,0.000000,,2013-05-05 12:01:00,
2013-05-05 04:11:00,26.0,19.0,-100.00,ESE,114,3.0,5.0,76,0.00,,,0.00,0.000000,,2013-05-05 12:11:00,
2013-05-05 04:21:00,26.0,19.0,-100.00,ESE,114,3.0,5.0,76,0.00,,,0.00,0.000000,,2013-05-05 12:21:00,
2013-05-05 04:52:00,25.0,19.0,-100.00,ESE,111,3.0,4.0,77,0.00,,,0.00,0.000000,,2013-05-05 12:52:00,
2013-05-05 05:01:00,25.0,19.0,-100.00,ESE,111,3.0,4.0,77,0.00,,,0.00,0.000000,,2013-05-05 13:01:00,
2013-05-05 05:11:00,25.0,19.0,-100.00,ESE,111,3.0,4.0,77,0.00,,,0.00,0.000000,,2013-05-05 13:11:00,
2013-05-05 05:21:00,25.0,19.0,-100.00,ESE,111,3.0,4.0,77,0.00,,,0.00,0.000000,,2013-05-05 13:21:00,
2013-05-05 05:52:00,23.0,17.0,-100.00,East,88,4.0,5.0,79,0.00,,,0.00,4.000000,,2013-05-05 13:52:00,
2013-05-05 06:01:00,23.0,17.0,-100.00,East,88,4.0,5.0,79,0.00,,,0.00,4.000000,,2013-05-05 14:01:00,
2013-05-05 06:11:00,23.0,17.0,-100.00,East,88,4.0,5.0,79,0.00,,,0.00,4.000000,,2013-05-05 14:11:00,
2013-05-05 06:21:00,23.0,17.0,-100.00,East,88,4.0,5.0,79,0.00,,,0.00,4.000000,,2013-05-05 14:21:00,
2013-05-05 06:52:00,24.0,19.0,-100.00,East,101,4.0,6.0,80,0.00,,,0.00,22.000000,,2013-05-05 14:52:00,
2013-05-05 07:01:00,24.0,19.0,-100.00,East,101,4.0,6.0,80,0.00,,,0.00,22.000000,,2013-05-05 15:01:00,
2013-05-05 07:11:00,24.0,19.0,-100.00,East,101,4.0,6.0,80,0.00,,,0.00,22.000000,,2013-05-05 15:11:00,
2013-05-05 07:21:00,24.0,19.0,-100.00,East,101,4.0,6.0,80,0.00,,,0.00,22.000000,,2013-05-05 15:21:00,
2013-05-05 07:53:00,26.0,18.0,-100.00,SE,144,3.0,6.0,72,0.00,,,0.00,103.000000,,2013-05-05 15:53:00,
2013-05-05 08:03:00,26.0,18.0,-100.00,SE,144,3.0,6.0,72,0.00,,,0.00,103.000000,,2013-05-05 16:03:00,
2013-05-05 08:12:00,26.0,18.0,-100.00,SE,144,3.0,6.0,72,0.00,,,0.00,103.000000,,2013-05-05 16:12:00,
2013-05-05 08:22:00,26.0,18.0,-100.00,SE,144,3.0,6.0,72,0.00,,,0.00,103.000000,,2013-05-05 16:22:00,
2013-05-05 08:53:00,30.0,21.0,-100.00,WSW,245,2.0,4.0,69,0.00,,,0.00,172.000000,,2013-05-05 16:53:00,
2013-05-05 09:02:00,30.0,21.0,-100.00,WSW,245,2.0,4.0,69,0.00,,,0.00,172.000000,,2013-05-05 17:02:00,
2013-05-05 09:12:00,30.0,21.0,-100.00,WSW,245,2.0,4.0,69,0.00,,,0.00,172.000000,,2013-05-05 17:12:00,
2013-05-05 09:23:00,30.0,21.0,-100.00,WSW,245,2.0,4.0,69,0.00,,,0.00,172.000000,,2013-05-05 17:23:00,
2013-05-05 09:52:00,32.0,20.0,-100.00,WSW,237,5.0,7.0,60,0.00,,,0.00,327.000000,,2013-05-05 17:52:00,
2013-05-05 10:01:00,32.0,20.0,-100.00,WSW,237,5.0,7.0,60,0.00,,,0.00,327.000000,,2013-05-05 18:01:00,
2013-05-05 10:11:00,32.0,20.0,-100.00,WSW,237,5.0,7.0,60,0.00,,,0.00,327.000000,,2013-05-05 18:11:00,
2013-05-05 10:21:00,32.0,20.0,-100.00,WSW,237,5.0,7.0,60,0.00,,,0.00,327.000000,,2013-05-05 18:21:00,
2013-05-05 10:52:00,34.0,14.0,-100.00,WSW,245,9.0,15.0,43,0.00,,,0.00,482.000000,,2013-05-05 18:52:00,
2013-05-05 11:01:00,34.0,14.0,-100.00,WSW,245,9.0,15.0,43,0.00,,,0.00,482.000000,,2013-05-05 19:01:00,
2013-05-05 11:11:00,34.0,14.0,-100.00,WSW,245,9.0,15.0,43,0.00,,,0.00,482.000000,,2013-05-05 19:11:00,
2013-05-05 11:21:00,34.0,14.0,-100.00,WSW,245,9.0,15.0,43,0.00,,,0.00,482.000000,,2013-05-05 19:21:00,
2013-05-05 11:52:00,34.0,15.0,-100.00,WSW,249,12.0,17.0,45,0.00,,,0.00,578.000000,,2013-05-05 19:52:00,
2013-05-05 12:01:00,34.0,15.0,-100.00,WSW,249,12.0,17.0,45,0.00,,,0.00,578.000000,,2013-05-05 20:01:00,
2013-05-05 12:11:00,34.0,15.0,-100.00,WSW,249,12.0,17.0,45,0.00,,,0.00,578.000000,,2013-05-05 20:11:00,
2013-05-05 12:21:00,34.0,15.0,-100.00,WSW,249,12.0,17.0,45,0.00,,,0.00,578.000000,,2013-05-05 20:21:00,
2013-05-05 12:52:00,35.0,15.0,-100.00,WSW,250,12.0,19.0,43,0.00,,,0.00,648.000000,,2013-05-05 20:52:00,
2013-05-05 13:01:00,35.0,15.0,-100.00,WSW,250,12.0,19.0,43,0.00,,,0.00,648.000000,,2013-05-05 21:01:00,
2013-05-05 13:11:00,35.0,15.0,-100.00,WSW,250,12.0,19.0,43,0.00,,,0.00,648.000000,,2013-05-05 21:11:00,
2013-05-05 13:21:00,35.0,15.0,-100.00,WSW,250,12.0,19.0,43,0.00,,,0.00,648.000000,,2013-05-05 21:21:00,
2013-05-05 13:53:00,36.0,14.0,-100.00,WSW,245,9.0,15.0,40,0.00,,,0.00,689.000000,,2013-05-05 21:53:00,
2013-05-05 14:02:00,36.0,14.0,-100.00,WSW,245,9.0,15.0,40,0.00,,,0.00,689.000000,,2013-05-05 22:02:00,
2013-05-05 14:12:00,36.0,14.0,-100.00,WSW,245,9.0,15.0,40,0.00,,,0.00,689.000000,,2013-05-05 22:12:00,
2013-05-05 14:22:00,36.0,14.0,-100.00,WSW,245,9.0,15.0,40,0.00,,,0.00,689.000000,,2013-05-05 22:22:00,
2013-05-05 14:52:00,37.0,14.0,-100.00,WSW,253,10.0,15.0,39,0.00,,,0.00,699.000000,,2013-05-05 22:52:00,
2013-05-05 15:02:00,37.0,14.0,-100.00,WSW,253,10.0,15.0,39,0.00,,,0.00,699.000000,,2013-05-05 23:02:00,
2013-05-05 15:11:00,37.0,14.0,-100.00,WSW,253,10.0,15.0,39,0.00,,,0.00,699.000000,,2013-05-05 23:11:00,
2013-05-05 15:21:00,37.0,14.0,-100.00,WSW,253,10.0,15.0,39,0.00,,,0.00,699.000000,,2013-05-05 23:21:00,
2013-05-05 15:52:00,38.0,15.0,-100.00,WSW,245,10.0,16.0,38,0.00,,,0.00,677.000000,,2013-05-05 23:52:00,
2013-05-05 16:01:00,38.0,15.0,-100.00,WSW,245,10.0,16.0,38,0.00,,,0.00,677.000000,,2013-05-06 00:01:00,
2013-05-05 16:11:00,38.0,15.0,-100.00,WSW,245,10.0,16.0,38,0.00,,,0.00,677.000000,,2013-05-06 00:11:00,
2013-05-05 16:21:00,38.0,15.0,-100.00,WSW,245,10.0,16.0,38,0.00,,,0.00,677.000000,,2013-05-06 00:21:00,
2013-05-05 16:51:00,39.0,15.0,-100.00,WSW,252,10.0,15.0,37,0.00,,,0.00,625.000000,,2013-05-06 00:51:00,
2013-05-05 17:01:00,39.0,15.0,-100.00,WSW,252,10.0,15.0,37,0.00,,,0.00,625.000000,,2013-05-06 01:01:00,
2013-05-05 17:11:00,39.0,15.0,-100.00,WSW,252,10.0,15.0,37,0.00,,,0.00,625.000000,,2013-05-06 01:11:00,
2013-05-05 17:21:00,39.0,15.0,-100.00,WSW,252,10.0,15.0,37,0.00,,,0.00,625.000000,,2013-05-06 01:21:00,
2013-05-05 17:52:00,40.0,15.0,-100.00,WSW,252,10.0,14.0,36,0.00,,,0.00,547.000000,,2013-05-06 01:52:00,
2013-05-05 18:01:00,40.0,15.0,-100.00,WSW,252,10.0,14.0,36,0.00,,,0.00,547.000000,,2013-05-06 02:01:00,
2013-05-05 18:11:00,40.0,15.0,-100.00,WSW,252,10.0,14.0,36,0.00,,,0.00,547.000000,,2013-05-06 02:11:00,
2013-05-05 18:21:00,40.0,15.0,-100.00,WSW,252,10.0,14.0,36,0.00,,,0.00,547.000000,,2013-05-06 02:21:00,
2013-05-05 18:52:00,40.0,15.0,-100.00,WSW,245,9.0,14.0,36,0.00,,,0.00,446.000000,,2013-05-06 02:52:00,
2013-05-05 19:01:00,40.0,15.0,-100.00,WSW,245,9.0,14.0,36,0.00,,,0.00,446.000000,,2013-05-06 03:01:00,
2013-05-05 19:11:00,40.0,15.0,-100.00,WSW,245,9.0,14.0,36,0.00,,,0.00,446.000000,,2013-05-06 03:11:00,
2013-05-05 19:22:00,40.0,15.0,-100.00,WSW,245,9.0,14.0,36,0.00,,,0.00,446.000000,,2013-05-06 03:22:00,
2013-05-05 19:52:00,40.0,15.0,-100.00,WSW,253,8.0,13.0,36,0.00,,,0.00,334.000000,,2013-05-06 03:52:00,
2013-05-05 20:02:00,40.0,15.0,-100.00,WSW,253,8.0,13.0,36,0.00,,,0.00,334.000000,,2013-05-06 04:02:00,
2013-05-05 20:12:00,40.0,15.0,-100.00,WSW,253,8.0,13.0,36,0.00,,,0.00,334.000000,,2013-05-06 04:12:00,
2013-05-05 20:23:00,40.0,15.0,-100.00,WSW,253,8.0,13.0,36,0.00,,,0.00,334.000000,,2013-05-06 04:23:00,
2013-05-05 20:53:00,39.0,15.0,-100.00,WSW,250,6.0,11.0,37,0.00,,,0.00,223.000000,,2013-05-06 04:53:00,
2013-05-05 21:02:00,39.0,15.0,-100.00,WSW,250,6.0,11.0,37,0.00,,,0.00,223.000000,,2013-05-06 05:02:00,
2013-05-05 21:12:00,39.0,15.0,-100.00,WSW,250,6.0,11.0,37,0.00,,,0.00,223.000000,,2013-05-06 05:12:00,
2013-05-05 21:22:00,39.0,15.0,-100.00,WSW,250,6.0,11.0,37,0.00,,,0.00,223.000000,,2013-05-06 05:22:00,
2013-05-05 21:52:00,37.0,13.0,-100.00,West,276,5.0,9.0,37,0.00,,,0.00,116.000000,,2013-05-06 05:52:00,
2013-05-05 22:02:00,37.0,13.0,-100.00,West,276,5.0,9.0,37,0.00,,,0.00,116.000000,,2013-05-06 06:02:00,
2013-05-05 22:12:00,37.0,13.0,-100.00,West,276,5.0,9.0,37,0.00,,,0.00,116.000000,,2013-05-06 06:12:00,
2013-05-05 22:21:00,37.0,13.0,-100.00,West,276,5.0,9.0,37,0.00,,,0.00,116.000000,,2013-05-06 06:21:00,
2013-05-05 22:52:00,32.0,10.0,-100.00,West,267,4.0,8.0,40,0.00,,,0.00,28.000000,,2013-05-06 06:52:00,
2013-05-05 23:01:00,32.0,10.0,-100.00,West,267,4.0,8.0,40,0.00,,,0.00,28.000000,,2013-05-06 07:01:00,
2013-05-05 23:11:00,32.0,10.0,-100.00,West,267,4.0,8.0,40,0.00,,,0.00,28.000000,,2013-05-06 07:11:00,
2013-05-05 23:22:00,32.0,10.0,-100.00,West,267,4.0,8.0,40,0.00,,,0.00,28.000000,,2013-05-06 07:22:00,
2013-05-05 23:52:00,27.0,11.0,-100.00,SW,216,1.0,4.0,50,0.00,,,0.00,3.000000,,2013-05-06 07:52:00,